Terminal Aerodrome Forecast
Issued by NWS

Home | Current Version | Previous Version | Text Only | Print | Product List | Glossary On
Versions: 1 2 3 4 5 6 7 8 9 10 11 12 13 14 15 16 17 18 19 20 21 22 23 24 25 26 27 28 29 30 31
534
FTUS43 KDLH 071051 AAC
TAFHIB
TAF AMD
KHIB 071051Z 0711/0806 20005KT P6SM BKN015 OVC050 WS020/26040KT
      TEMPO 0711/0712 2SM -DZSN OVC008
     FM071200 23010KT 6SM -DZSN BR BKN012 OVC040
     FM071400 27012KT 4SM -SN BR OVC012
     FM071800 31012G22KT 3SM -SN BLSN OVC015
     FM080000 33017G27KT 5SM -SN BLSN OVC020=

USA.gov is the U.S. government's official web portal to all federal, state and local government web resources and services.